EDGS

Siegerland Airport

Germany
METAR EDGS 201620Z 15005KT 3000 -SN BR OVC002 M01/M01 Q0997
Observed Flight Rules
Jan-20 @ 16:20 UTC (13 hours ago) Instrument Flight Rules
Wind Visibility Clouds Conditions
150° at 5 knots 2,993 meters
  • Overcast at 200' AGL
  • Light Snow
  • Mist
Temperatures Readings
Current -1°C / 30°F
Dewpoint -1°C / 30°F
Humidity 100%
Altimeter 29.44" Hg
Pressure 997 hPa
Elevation 602
METAR EDGS 201620Z 15005KT 3000 -SN BR OVC002 M01/M01 Q0997
Observed Flight Rules
Jan-20 @ 16:20 UTC
(13 hours ago)
LIFR
Wind Visibility
150° at 5 knots 2,993 meters
Clouds
  • Overcast at 200' AGL
Conditions
  • Light Snow
  • Mist
Temperature Dewpoint
-1°C / 30°F -1°C / 30°F
Humidity Altimeter Pressure
100% 29.44" Hg 997 hPa